sensor_id;sensor_type;location;lat;lon;timestamp;pressure;altitude;pressure_sealevel;temperature;humidity
58761;BME280;44529;47.464;19.014;2022-10-14T00:00:03;100667.84;;;9.23;100.00
58761;BME280;44529;47.464;19.014;2022-10-14T00:03:12;100658.13;;;9.22;100.00
58761;BME280;44529;47.464;19.014;2022-10-14T00:06:17;100656.31;;;9.17;100.00
58761;BME280;44529;47.464;19.014;2022-10-14T00:09:20;100656.81;;;9.19;100.00
58761;BME280;44529;47.464;19.014;2022-10-14T00:12:22;100659.12;;;9.07;100.00
58761;BME280;44529;47.464;19.014;2022-10-14T00:15:24;100655.38;;;9.08;100.00
58761;BME280;44529;47.464;19.014;2022-10-14T00:18:27;100660.91;;;8.98;100.00
58761;BME280;44529;47.464;19.014;2022-10-14T00:21:29;100651.41;;;9.01;100.00
58761;BME280;44529;47.464;19.014;2022-10-14T00:24:32;100652.12;;;9.06;100.00
58761;BME280;44529;47.464;19.014;2022-10-14T00:27:34;100652.12;;;9.06;100.00
58761;BME280;44529;47.464;19.014;2022-10-14T00:30:38;100646.53;;;9.03;100.00
58761;BME280;44529;47.464;19.014;2022-10-14T00:33:40;100644.41;;;9.00;100.00
58761;BME280;44529;47.464;19.014;2022-10-14T00:36:44;100645.56;;;8.93;100.00
58761;BME280;44529;47.464;19.014;2022-10-14T00:39:48;100648.56;;;8.92;100.00
58761;BME280;44529;47.464;19.014;2022-10-14T00:43:00;100647.72;;;8.97;100.00
58761;BME280;44529;47.464;19.014;2022-10-14T00:46:02;100645.50;;;8.99;100.00
58761;BME280;44529;47.464;19.014;2022-10-14T00:49:09;100647.03;;;9.05;100.00
58761;BME280;44529;47.464;19.014;2022-10-14T00:52:15;100650.09;;;8.98;100.00
58761;BME280;44529;47.464;19.014;2022-10-14T00:55:19;100647.97;;;8.95;100.00
58761;BME280;44529;47.464;19.014;2022-10-14T00:58:21;100637.41;;;8.99;100.00
58761;BME280;44529;47.464;19.014;2022-10-14T01:01:23;100639.63;;;8.97;100.00
58761;BME280;44529;47.464;19.014;2022-10-14T01:04:26;100631.28;;;8.93;100.00
58761;BME280;44529;47.464;19.014;2022-10-14T01:07:39;100632.97;;;8.89;100.00
58761;BME280;44529;47.464;19.014;2022-10-14T01:10:53;100635.88;;;8.92;100.00
58761;BME280;44529;47.464;19.014;2022-10-14T01:14:30;100635.59;;;8.94;100.00
58761;BME280;44529;47.464;19.014;2022-10-14T01:21:21;100643.53;;;8.85;100.00
58761;BME280;44529;47.464;19.014;2022-10-14T01:24:54;100636.84;;;8.83;100.00
58761;BME280;44529;47.464;19.014;2022-10-14T01:31:19;100628.28;;;8.76;100.00
58761;BME280;44529;47.464;19.014;2022-10-14T01:34:27;100625.88;;;8.74;100.00
58761;BME280;44529;47.464;19.014;2022-10-14T01:37:33;100624.28;;;8.73;100.00
58761;BME280;44529;47.464;19.014;2022-10-14T01:40:44;100622.69;;;8.72;100.00
58761;BME280;44529;47.464;19.014;2022-10-14T01:43:51;100622.81;;;8.81;100.00
58761;BME280;44529;47.464;19.014;2022-10-14T01:46:57;100620.47;;;8.74;100.00
58761;BME280;44529;47.464;19.014;2022-10-14T01:50:06;100623.47;;;8.73;100.00
58761;BME280;44529;47.464;19.014;2022-10-14T01:53:14;100619.69;;;8.74;100.00
58761;BME280;44529;47.464;19.014;2022-10-14T01:56:18;100614.59;;;8.72;100.00
58761;BME280;44529;47.464;19.014;2022-10-14T01:59:21;100610.06;;;8.67;100.00
58761;BME280;44529;47.464;19.014;2022-10-14T02:02:24;100614.19;;;8.60;100.00
58761;BME280;44529;47.464;19.014;2022-10-14T02:08:57;100615.97;;;8.70;100.00
58761;BME280;44529;47.464;19.014;2022-10-14T02:15:33;100611.59;;;8.74;100.00
58761;BME280;44529;47.464;19.014;2022-10-14T02:19:09;100607.00;;;8.74;100.00
58761;BME280;44529;47.464;19.014;2022-10-14T02:25:34;100608.75;;;8.65;100.00
58761;BME280;44529;47.464;19.014;2022-10-14T02:28:40;100605.53;;;8.63;100.00
58761;BME280;44529;47.464;19.014;2022-10-14T02:31:44;100612.31;;;8.60;100.00
58761;BME280;44529;47.464;19.014;2022-10-14T02:34:51;100613.41;;;8.59;100.00
58761;BME280;44529;47.464;19.014;2022-10-14T02:37:56;100607.78;;;8.56;100.00
58761;BME280;44529;47.464;19.014;2022-10-14T02:41:02;100606.22;;;8.50;100.00
58761;BME280;44529;47.464;19.014;2022-10-14T02:44:09;100610.81;;;8.49;100.00
58761;BME280;44529;47.464;19.014;2022-10-14T02:47:12;100608.94;;;8.50;100.00
58761;BME280;44529;47.464;19.014;2022-10-14T02:50:14;100603.84;;;8.48;100.00
58761;BME280;44529;47.464;19.014;2022-10-14T02:53:16;100608.66;;;8.51;100.00
58761;BME280;44529;47.464;19.014;2022-10-14T02:56:19;100605.72;;;8.48;100.00
58761;BME280;44529;47.464;19.014;2022-10-14T02:59:21;100603.53;;;8.50;100.00
58761;BME280;44529;47.464;19.014;2022-10-14T03:02:23;100608.12;;;8.49;100.00
58761;BME280;44529;47.464;19.014;2022-10-14T03:05:26;100603.63;;;8.45;100.00
58761;BME280;44529;47.464;19.014;2022-10-14T03:08:28;100604.69;;;8.44;100.00
58761;BME280;44529;47.464;19.014;2022-10-14T03:11:30;100603.03;;;8.48;100.00
58761;BME280;44529;47.464;19.014;2022-10-14T03:14:34;100603.53;;;8.50;100.00
58761;BME280;44529;47.464;19.014;2022-10-14T03:17:37;100603.03;;;8.48;100.00
58761;BME280;44529;47.464;19.014;2022-10-14T03:20:42;100607.13;;;8.45;100.00
58761;BME280;44529;47.464;19.014;2022-10-14T03:23:46;100597.44;;;8.44;100.00
58761;BME280;44529;47.464;19.014;2022-10-14T03:26:48;100604.97;;;8.42;100.00
58761;BME280;44529;47.464;19.014;2022-10-14T03:29:53;100600.84;;;8.50;100.00
58761;BME280;44529;47.464;19.014;2022-10-14T03:32:56;100596.13;;;8.60;100.00
58761;BME280;44529;47.464;19.014;2022-10-14T03:36:00;100598.62;;;8.57;100.00
58761;BME280;44529;47.464;19.014;2022-10-14T03:39:04;100597.53;;;8.58;100.00
58761;BME280;44529;47.464;19.014;2022-10-14T03:42:07;100598.53;;;8.62;100.00
58761;BME280;44529;47.464;19.014;2022-10-14T03:45:11;100598.53;;;8.62;100.00
58761;BME280;44529;47.464;19.014;2022-10-14T03:48:14;100595.28;;;8.65;100.00
58761;BME280;44529;47.464;19.014;2022-10-14T03:51:16;100599.34;;;8.62;100.00
58761;BME280;44529;47.464;19.014;2022-10-14T03:54:19;100589.34;;;8.63;100.00
58761;BME280;44529;47.464;19.014;2022-10-14T03:57:22;100597.81;;;8.75;100.00
58761;BME280;44529;47.464;19.014;2022-10-14T04:00:25;100589.22;;;8.73;100.00
58761;BME280;44529;47.464;19.014;2022-10-14T04:03:28;100587.34;;;8.74;100.00
58761;BME280;44529;47.464;19.014;2022-10-14T04:06:30;100581.94;;;8.74;100.00
58761;BME280;44529;47.464;19.014;2022-10-14T04:09:34;100584.12;;;8.72;100.00
58761;BME280;44529;47.464;19.014;2022-10-14T04:12:37;100583.84;;;8.73;100.00
58761;BME280;44529;47.464;19.014;2022-10-14T04:15:41;100582.81;;;8.69;100.00
58761;BME280;44529;47.464;19.014;2022-10-14T04:18:44;100579.91;;;8.65;100.00
58761;BME280;44529;47.464;19.014;2022-10-14T04:21:47;100572.16;;;8.59;100.00
58761;BME280;44529;47.464;19.014;2022-10-14T04:24:50;100567.28;;;8.61;100.00
58761;BME280;44529;47.464;19.014;2022-10-14T04:27:52;100566.78;;;8.59;100.00
58761;BME280;44529;47.464;19.014;2022-10-14T04:30:56;100567.59;;;8.59;100.00
58761;BME280;44529;47.464;19.014;2022-10-14T04:33:59;100567.28;;;8.61;100.00
58761;BME280;44529;47.464;19.014;2022-10-14T04:37:02;100576.69;;;8.45;100.00
58761;BME280;44529;47.464;19.014;2022-10-14T04:40:06;100568.75;;;8.53;100.00
58761;BME280;44529;47.464;19.014;2022-10-14T04:43:12;100574.03;;;8.39;100.00
58761;BME280;44529;47.464;19.014;2022-10-14T04:46:15;100565.91;;;8.45;100.00
58761;BME280;44529;47.464;19.014;2022-10-14T04:49:17;100571.28;;;8.45;100.00
58761;BME280;44529;47.464;19.014;2022-10-14T04:52:21;100564.25;;;8.44;100.00
58761;BME280;44529;47.464;19.014;2022-10-14T04:55:24;100573.25;;;8.39;100.00
58761;BME280;44529;47.464;19.014;2022-10-14T04:58:26;100574.03;;;8.39;100.00
58761;BME280;44529;47.464;19.014;2022-10-14T05:01:29;100582.94;;;8.35;100.00
58761;BME280;44529;47.464;19.014;2022-10-14T05:04:35;100580.59;;;8.28;100.00
58761;BME280;44529;47.464;19.014;2022-10-14T05:07:38;100576.75;;;8.34;100.00
58761;BME280;44529;47.464;19.014;2022-10-14T05:10:42;100580.25;;;8.35;100.00
58761;BME280;44529;47.464;19.014;2022-10-14T05:13:45;100579.19;;;8.36;100.00
58761;BME280;44529;47.464;19.014;2022-10-14T05:16:49;100581.25;;;8.44;100.00
58761;BME280;44529;47.464;19.014;2022-10-14T05:19:55;100580.38;;;8.49;100.00
58761;BME280;44529;47.464;19.014;2022-10-14T05:22:58;100583.31;;;8.52;100.00
58761;BME280;44529;47.464;19.014;2022-10-14T05:26:01;100586.22;;;8.56;100.00
58761;BME280;44529;47.464;19.014;2022-10-14T05:29:04;100589.44;;;8.58;100.00
58761;BME280;44529;47.464;19.014;2022-10-14T05:32:07;100596.94;;;8.61;100.00
58761;BME280;44529;47.464;19.014;2022-10-14T05:35:10;100588.53;;;8.62;100.00
58761;BME280;44529;47.464;19.014;2022-10-14T05:38:13;100587.69;;;8.67;100.00
58761;BME280;44529;47.464;19.014;2022-10-14T05:41:16;100591.12;;;8.73;100.00
58761;BME280;44529;47.464;19.014;2022-10-14T05:44:18;100584.06;;;8.77;100.00
58761;BME280;44529;47.464;19.014;2022-10-14T05:47:21;100589.16;;;8.78;100.00
58761;BME280;44529;47.464;19.014;2022-10-14T05:50:24;100588.00;;;8.84;100.00
58761;BME280;44529;47.464;19.014;2022-10-14T05:53:28;100598.94;;;8.93;100.00
58761;BME280;44529;47.464;19.014;2022-10-14T05:56:31;100603.97;;;9.00;100.00
58761;BME280;44529;47.464;19.014;2022-10-14T05:59:34;100600.59;;;9.08;100.00
58761;BME280;44529;47.464;19.014;2022-10-14T06:02:36;100599.66;;;9.17;100.00
58761;BME280;44529;47.464;19.014;2022-10-14T06:05:38;100607.31;;;9.29;100.00
58761;BME280;44529;47.464;19.014;2022-10-14T06:08:41;100606.06;;;9.40;100.00
58761;BME280;44529;47.464;19.014;2022-10-14T06:11:44;100608.19;;;9.57;100.00
58761;BME280;44529;47.464;19.014;2022-10-14T06:14:46;100608.22;;;9.71;100.00
58761;BME280;44529;47.464;19.014;2022-10-14T06:17:48;100616.06;;;9.86;100.00
58761;BME280;44529;47.464;19.014;2022-10-14T06:20:52;100611.28;;;9.97;100.00
58761;BME280;44529;47.464;19.014;2022-10-14T06:23:55;100611.28;;;10.11;100.00
58761;BME280;44529;47.464;19.014;2022-10-14T06:26:57;100616.50;;;10.21;100.00
58761;BME280;44529;47.464;19.014;2022-10-14T06:29:59;100619.06;;;10.31;100.00
58761;BME280;44529;47.464;19.014;2022-10-14T06:33:02;100612.34;;;10.42;100.00
58761;BME280;44529;47.464;19.014;2022-10-14T06:36:05;100609.75;;;10.51;100.00
58761;BME280;44529;47.464;19.014;2022-10-14T06:39:08;100621.75;;;10.58;100.00
58761;BME280;44529;47.464;19.014;2022-10-14T06:42:10;100628.34;;;10.66;100.00
58761;BME280;44529;47.464;19.014;2022-10-14T06:45:14;100620.13;;;10.71;100.00
58761;BME280;44529;47.464;19.014;2022-10-14T06:48:16;100618.91;;;10.77;100.00
58761;BME280;44529;47.464;19.014;2022-10-14T06:51:18;100627.22;;;10.81;100.00
58761;BME280;44529;47.464;19.014;2022-10-14T06:54:21;100631.41;;;10.87;100.00
58761;BME280;44529;47.464;19.014;2022-10-14T06:57:23;100627.81;;;10.92;100.00
58761;BME280;44529;47.464;19.014;2022-10-14T07:00:27;100636.13;;;10.95;100.00
58761;BME280;44529;47.464;19.014;2022-10-14T07:03:29;100638.09;;;11.03;100.00
58761;BME280;44529;47.464;19.014;2022-10-14T07:06:32;100635.28;;;11.08;100.00
58761;BME280;44529;47.464;19.014;2022-10-14T07:09:34;100630.37;;;11.10;100.00
58761;BME280;44529;47.464;19.014;2022-10-14T07:12:37;100630.94;;;11.21;100.00
58761;BME280;44529;47.464;19.014;2022-10-14T07:15:39;100633.22;;;11.28;100.00
58761;BME280;44529;47.464;19.014;2022-10-14T07:18:41;100632.78;;;11.34;100.00
58761;BME280;44529;47.464;19.014;2022-10-14T07:21:43;100629.50;;;11.46;100.00
58761;BME280;44529;47.464;19.014;2022-10-14T07:24:48;100629.28;;;11.56;100.00
58761;BME280;44529;47.464;19.014;2022-10-14T07:27:51;100632.03;;;11.65;100.00
58761;BME280;44529;47.464;19.014;2022-10-14T07:31:08;100625.38;;;11.71;100.00
58761;BME280;44529;47.464;19.014;2022-10-14T07:34:11;100630.59;;;11.81;100.00
58761;BME280;44529;47.464;19.014;2022-10-14T07:37:14;100627.63;;;11.91;100.00
58761;BME280;44529;47.464;19.014;2022-10-14T07:40:16;100631.97;;;12.01;100.00
58761;BME280;44529;47.464;19.014;2022-10-14T07:43:18;100636.00;;;12.12;100.00
58761;BME280;44529;47.464;19.014;2022-10-14T07:46:22;100635.72;;;12.23;96.74
58761;BME280;44529;47.464;19.014;2022-10-14T07:49:33;100626.84;;;12.31;96.75
58761;BME280;44529;47.464;19.014;2022-10-14T07:52:36;100623.34;;;12.39;96.75
58761;BME280;44529;47.464;19.014;2022-10-14T07:55:42;100619.06;;;12.46;96.90
58761;BME280;44529;47.464;19.014;2022-10-14T07:58:53;100619.09;;;12.55;97.10
58761;BME280;44529;47.464;19.014;2022-10-14T08:01:55;100618.31;;;12.63;96.74
58761;BME280;44529;47.464;19.014;2022-10-14T08:04:58;100614.81;;;12.71;95.68
58761;BME280;44529;47.464;19.014;2022-10-14T08:08:20;100617.72;;;12.84;94.65
58761;BME280;44529;47.464;19.014;2022-10-14T08:11:26;100622.19;;;13.06;92.54
58761;BME280;44529;47.464;19.014;2022-10-14T08:14:28;100614.59;;;13.34;90.73
58761;BME280;44529;47.464;19.014;2022-10-14T08:17:30;100611.81;;;13.68;89.61
58761;BME280;44529;47.464;19.014;2022-10-14T08:20:33;100616.69;;;14.01;88.33
58761;BME280;44529;47.464;19.014;2022-10-14T08:23:35;100613.50;;;14.37;86.37
58761;BME280;44529;47.464;19.014;2022-10-14T08:26:41;100605.84;;;14.69;84.93
58761;BME280;44529;47.464;19.014;2022-10-14T08:29:50;100612.28;;;15.06;82.72
58761;BME280;44529;47.464;19.014;2022-10-14T08:32:52;100609.69;;;15.30;80.60
58761;BME280;44529;47.464;19.014;2022-10-14T08:35:54;100608.72;;;15.68;78.76
58761;BME280;44529;47.464;19.014;2022-10-14T08:38:56;100608.78;;;15.92;77.10
58761;BME280;44529;47.464;19.014;2022-10-14T08:45:40;100593.53;;;16.65;71.70
58761;BME280;44529;47.464;19.014;2022-10-14T08:48:45;100590.09;;;16.92;68.26
58761;BME280;44529;47.464;19.014;2022-10-14T08:51:52;100600.75;;;17.10;67.59
58761;BME280;44529;47.464;19.014;2022-10-14T08:55:02;100589.25;;;17.32;66.98
58761;BME280;44529;47.464;19.014;2022-10-14T08:58:12;100591.53;;;17.58;66.05
58761;BME280;44529;47.464;19.014;2022-10-14T09:04:21;100591.03;;;17.68;65.74
58761;BME280;44529;47.464;19.014;2022-10-14T09:07:27;100591.69;;;17.77;63.65
58761;BME280;44529;47.464;19.014;2022-10-14T09:10:37;100596.56;;;17.56;64.56
58761;BME280;44529;47.464;19.014;2022-10-14T09:13:44;100598.31;;;17.76;65.02
58761;BME280;44529;47.464;19.014;2022-10-14T09:16:49;100594.03;;;17.63;64.93
58761;BME280;44529;47.464;19.014;2022-10-14T09:20:22;100600.59;;;17.74;63.74
58761;BME280;44529;47.464;19.014;2022-10-14T09:23:26;100599.19;;;17.80;64.94
58761;BME280;44529;47.464;19.014;2022-10-14T09:26:50;100596.22;;;17.57;64.95
58761;BME280;44529;47.464;19.014;2022-10-14T09:30:01;100598.44;;;17.52;64.83
58761;BME280;44529;47.464;19.014;2022-10-14T09:33:04;100598.97;;;17.29;66.15
58761;BME280;44529;47.464;19.014;2022-10-14T09:36:19;100596.13;;;17.26;66.62
58761;BME280;44529;47.464;19.014;2022-10-14T09:39:21;100599.25;;;17.12;67.81
58761;BME280;44529;47.464;19.014;2022-10-14T09:46:11;100598.41;;;17.24;65.02
58761;BME280;44529;47.464;19.014;2022-10-14T09:49:16;100591.38;;;17.23;66.64
58761;BME280;44529;47.464;19.014;2022-10-14T09:52:24;100592.78;;;17.04;66.69
58761;BME280;44529;47.464;19.014;2022-10-14T09:55:30;100598.62;;;16.91;66.80
58761;BME280;44529;47.464;19.014;2022-10-14T09:58:52;100590.19;;;17.08;68.48
58761;BME280;44529;47.464;19.014;2022-10-14T10:02:00;100589.34;;;17.20;69.66
58761;BME280;44529;47.464;19.014;2022-10-14T10:05:21;100586.81;;;17.27;68.15
58761;BME280;44529;47.464;19.014;2022-10-14T10:08:24;100593.34;;;17.38;69.49
58761;BME280;44529;47.464;19.014;2022-10-14T10:11:38;100588.28;;;17.52;67.54
58761;BME280;44529;47.464;19.014;2022-10-14T10:14:54;100594.19;;;17.54;65.81
58761;BME280;44529;47.464;19.014;2022-10-14T10:17:57;100585.28;;;17.57;65.32
58761;BME280;44529;47.464;19.014;2022-10-14T10:21:01;100577.53;;;17.59;66.52
58761;BME280;44529;47.464;19.014;2022-10-14T10:24:17;100576.41;;;17.76;67.09
58761;BME280;44529;47.464;19.014;2022-10-14T10:27:28;100576.81;;;17.91;66.99
58761;BME280;44529;47.464;19.014;2022-10-14T10:34:38;100574.06;;;18.06;67.17
58761;BME280;44529;47.464;19.014;2022-10-14T10:38:27;100569.00;;;18.08;68.45
58761;BME280;44529;47.464;19.014;2022-10-14T10:42:03;100557.81;;;18.13;67.02
58761;BME280;44529;47.464;19.014;2022-10-14T10:48:47;100556.13;;;18.25;67.37
58761;BME280;44529;47.464;19.014;2022-10-14T10:55:44;100554.38;;;18.17;65.36
58761;BME280;44529;47.464;19.014;2022-10-14T10:59:04;100550.03;;;18.16;65.11
58761;BME280;44529;47.464;19.014;2022-10-14T11:15:26;100533.50;;;18.28;63.40
58761;BME280;44529;47.464;19.014;2022-10-14T11:18:50;100531.81;;;18.39;64.39
58761;BME280;44529;47.464;19.014;2022-10-14T11:25:27;100524.41;;;18.59;64.97
58761;BME280;44529;47.464;19.014;2022-10-14T11:28:54;100526.69;;;18.73;64.58
58761;BME280;44529;47.464;19.014;2022-10-14T11:35:28;100519.78;;;18.79;62.84
58761;BME280;44529;47.464;19.014;2022-10-14T11:42:07;100509.81;;;18.71;64.63
58761;BME280;44529;47.464;19.014;2022-10-14T11:51:39;100498.97;;;18.58;62.96
58761;BME280;44529;47.464;19.014;2022-10-14T11:54:47;100491.19;;;18.60;62.83
58761;BME280;44529;47.464;19.014;2022-10-14T11:57:58;100491.47;;;18.55;65.35
58761;BME280;44529;47.464;19.014;2022-10-14T12:01:05;100503.12;;;18.52;65.08
58761;BME280;44529;47.464;19.014;2022-10-14T12:04:19;100495.81;;;18.56;66.17
58761;BME280;44529;47.464;19.014;2022-10-14T12:07:38;100486.16;;;18.62;65.56
58761;BME280;44529;47.464;19.014;2022-10-14T12:10:48;100487.91;;;18.71;64.36
58761;BME280;44529;47.464;19.014;2022-10-14T12:13:53;100490.56;;;18.67;62.66
58761;BME280;44529;47.464;19.014;2022-10-14T12:17:03;100487.87;;;18.51;63.23
58761;BME280;44529;47.464;19.014;2022-10-14T12:24:10;100477.53;;;18.25;63.81
58761;BME280;44529;47.464;19.014;2022-10-14T12:27:11;100482.62;;;18.27;65.65
58761;BME280;44529;47.464;19.014;2022-10-14T12:34:13;100471.41;;;18.32;68.24
58761;BME280;44529;47.464;19.014;2022-10-14T12:40:33;100463.44;;;18.62;66.10
58761;BME280;44529;47.464;19.014;2022-10-14T12:43:37;100467.16;;;18.70;63.99
58761;BME280;44529;47.464;19.014;2022-10-14T12:46:44;100462.69;;;18.81;63.75
58761;BME280;44529;47.464;19.014;2022-10-14T12:49:51;100453.78;;;19.07;64.00
58761;BME280;44529;47.464;19.014;2022-10-14T12:52:56;100450.78;;;19.15;63.49
58761;BME280;44529;47.464;19.014;2022-10-14T12:56:04;100449.63;;;19.16;62.63
58761;BME280;44529;47.464;19.014;2022-10-14T12:59:15;100448.84;;;19.16;62.78
58761;BME280;44529;47.464;19.014;2022-10-14T13:02:35;100452.12;;;19.02;63.41
58761;BME280;44529;47.464;19.014;2022-10-14T13:05:41;100462.69;;;18.81;63.35
58761;BME280;44529;47.464;19.014;2022-10-14T13:15:51;100446.66;;;18.63;64.36
58761;BME280;44529;47.464;19.014;2022-10-14T13:18:54;100452.06;;;18.79;64.00
58761;BME280;44529;47.464;19.014;2022-10-14T13:22:03;100448.50;;;18.98;63.30
58761;BME280;44529;47.464;19.014;2022-10-14T13:25:16;100445.34;;;18.96;62.66
58761;BME280;44529;47.464;19.014;2022-10-14T13:28:24;100438.56;;;18.90;63.01
58761;BME280;44529;47.464;19.014;2022-10-14T13:35:33;100438.03;;;18.81;62.45
58761;BME280;44529;47.464;19.014;2022-10-14T13:38:43;100438.44;;;18.83;63.36
58761;BME280;44529;47.464;19.014;2022-10-14T13:41:47;100434.97;;;18.86;64.35
58761;BME280;44529;47.464;19.014;2022-10-14T13:44:51;100431.88;;;18.87;63.08
58761;BME280;44529;47.464;19.014;2022-10-14T13:47:54;100433.47;;;18.88;64.40
58761;BME280;44529;47.464;19.014;2022-10-14T13:51:22;100427.84;;;18.81;63.19
58761;BME280;44529;47.464;19.014;2022-10-14T13:54:38;100427.53;;;18.86;64.39
58761;BME280;44529;47.464;19.014;2022-10-14T13:57:40;100433.37;;;18.85;64.65
58761;BME280;44529;47.464;19.014;2022-10-14T14:01:03;100426.03;;;18.89;64.87
58761;BME280;44529;47.464;19.014;2022-10-14T14:04:10;100423.59;;;18.84;65.11
58761;BME280;44529;47.464;19.014;2022-10-14T14:07:22;100416.16;;;18.84;64.04
58761;BME280;44529;47.464;19.014;2022-10-14T14:10:59;100413.41;;;18.84;65.42
58761;BME280;44529;47.464;19.014;2022-10-14T14:14:39;100405.19;;;18.84;64.82
58761;BME280;44529;47.464;19.014;2022-10-14T14:17:42;100412.91;;;18.79;65.06
58761;BME280;44529;47.464;19.014;2022-10-14T14:20:54;100411.62;;;18.73;64.40
58761;BME280;44529;47.464;19.014;2022-10-14T14:24:00;100402.69;;;18.76;65.86
58761;BME280;44529;47.464;19.014;2022-10-14T14:27:02;100401.12;;;18.75;66.58
58761;BME280;44529;47.464;19.014;2022-10-14T14:30:19;100400.25;;;18.71;65.65
58761;BME280;44529;47.464;19.014;2022-10-14T14:33:28;100407.13;;;18.64;67.88
58761;BME280;44529;47.464;19.014;2022-10-14T14:36:31;100404.25;;;18.57;68.09
58761;BME280;44529;47.464;19.014;2022-10-14T14:43:00;100409.25;;;18.52;68.99
58761;BME280;44529;47.464;19.014;2022-10-14T14:46:04;100408.31;;;18.44;67.78
58761;BME280;44529;47.464;19.014;2022-10-14T14:49:14;100407.38;;;18.36;68.66
58761;BME280;44529;47.464;19.014;2022-10-14T14:52:17;100411.03;;;18.25;68.27
58761;BME280;44529;47.464;19.014;2022-10-14T15:02:27;100401.53;;;18.19;69.93
58761;BME280;44529;47.464;19.014;2022-10-14T15:05:30;100404.53;;;18.13;69.35
58761;BME280;44529;47.464;19.014;2022-10-14T15:08:34;100398.28;;;18.13;69.27
58761;BME280;44529;47.464;19.014;2022-10-14T15:11:47;100398.19;;;18.09;69.27
58761;BME280;44529;47.464;19.014;2022-10-14T15:14:56;100396.03;;;17.99;69.50
58761;BME280;44529;47.464;19.014;2022-10-14T15:18:18;100400.63;;;17.95;69.89
58761;BME280;44529;47.464;19.014;2022-10-14T15:21:21;100391.03;;;17.85;69.00
58761;BME280;44529;47.464;19.014;2022-10-14T15:24:25;100395.09;;;17.76;69.28
58761;BME280;44529;47.464;19.014;2022-10-14T15:27:52;100383.97;;;17.69;69.85
58761;BME280;44529;47.464;19.014;2022-10-14T15:30:55;100391.59;;;17.59;70.90
58761;BME280;44529;47.464;19.014;2022-10-14T15:34:20;100389.37;;;17.49;71.85
58761;BME280;44529;47.464;19.014;2022-10-14T15:37:23;100394.16;;;17.37;72.23
58761;BME280;44529;47.464;19.014;2022-10-14T15:40:28;100388.09;;;17.27;72.60
58761;BME280;44529;47.464;19.014;2022-10-14T15:43:30;100398.03;;;17.20;73.47
58761;BME280;44529;47.464;19.014;2022-10-14T15:46:35;100400.50;;;17.09;74.00
58761;BME280;44529;47.464;19.014;2022-10-14T15:49:56;100407.25;;;16.99;74.03
58761;BME280;44529;47.464;19.014;2022-10-14T15:52:59;100400.75;;;16.88;74.11
58761;BME280;44529;47.464;19.014;2022-10-14T15:56:02;100406.81;;;16.82;74.29
58761;BME280;44529;47.464;19.014;2022-10-14T15:59:05;100412.88;;;16.75;74.88
58761;BME280;44529;47.464;19.014;2022-10-14T16:02:20;100407.97;;;16.68;75.70
58761;BME280;44529;47.464;19.014;2022-10-14T16:05:25;100411.34;;;16.49;78.86
58761;BME280;44529;47.464;19.014;2022-10-14T16:08:27;100413.78;;;16.39;79.30
58761;BME280;44529;47.464;19.014;2022-10-14T16:11:30;100420.97;;;16.31;81.48
58761;BME280;44529;47.464;19.014;2022-10-14T16:14:32;100422.44;;;16.29;81.28
58761;BME280;44529;47.464;19.014;2022-10-14T16:17:34;100426.69;;;16.14;82.29
58761;BME280;44529;47.464;19.014;2022-10-14T16:20:37;100428.06;;;16.08;82.72
58761;BME280;44529;47.464;19.014;2022-10-14T16:23:39;100432.16;;;16.02;83.18
58761;BME280;44529;47.464;19.014;2022-10-14T16:26:41;100431.00;;;16.03;82.52
58761;BME280;44529;47.464;19.014;2022-10-14T16:29:47;100433.75;;;16.03;82.21
58761;BME280;44529;47.464;19.014;2022-10-14T16:32:49;100434.00;;;15.97;82.49
58761;BME280;44529;47.464;19.014;2022-10-14T16:35:53;100441.72;;;15.95;81.39
58761;BME280;44529;47.464;19.014;2022-10-14T16:38:56;100440.91;;;15.95;80.82
58761;BME280;44529;47.464;19.014;2022-10-14T16:42:02;100454.69;;;15.86;83.69
58761;BME280;44529;47.464;19.014;2022-10-14T16:45:04;100455.25;;;15.80;83.48
58761;BME280;44529;47.464;19.014;2022-10-14T16:48:07;100451.16;;;15.74;84.64
58761;BME280;44529;47.464;19.014;2022-10-14T16:51:09;100451.47;;;15.60;84.90
58761;BME280;44529;47.464;19.014;2022-10-14T16:54:11;100457.59;;;15.57;85.39
58761;BME280;44529;47.464;19.014;2022-10-14T16:57:14;100452.03;;;15.41;85.64
58761;BME280;44529;47.464;19.014;2022-10-14T17:00:16;100451.66;;;15.42;85.70
58761;BME280;44529;47.464;19.014;2022-10-14T17:03:23;100451.66;;;15.42;85.22
58761;BME280;44529;47.464;19.014;2022-10-14T17:06:28;100454.97;;;15.36;83.83
58761;BME280;44529;47.464;19.014;2022-10-14T17:09:30;100454.50;;;15.34;83.73
58761;BME280;44529;47.464;19.014;2022-10-14T17:12:34;100451.75;;;15.22;85.62
58761;BME280;44529;47.464;19.014;2022-10-14T17:15:37;100443.59;;;15.22;84.55
58761;BME280;44529;47.464;19.014;2022-10-14T17:18:39;100447.28;;;15.05;86.67
58761;BME280;44529;47.464;19.014;2022-10-14T17:21:42;100442.53;;;15.02;85.84
58761;BME280;44529;47.464;19.014;2022-10-14T17:24:48;100447.03;;;14.98;85.70
58761;BME280;44529;47.464;19.014;2022-10-14T17:27:51;100447.72;;;14.95;85.32
58761;BME280;44529;47.464;19.014;2022-10-14T17:30:53;100445.41;;;14.84;85.84
58761;BME280;44529;47.464;19.014;2022-10-14T17:33:57;100452.62;;;14.80;86.42
58761;BME280;44529;47.464;19.014;2022-10-14T17:37:00;100450.00;;;14.72;87.23
58761;BME280;44529;47.464;19.014;2022-10-14T17:40:02;100448.16;;;14.63;87.71